createdAt,value
2018-10-11T00:00:21.798Z,99074.97
2018-10-11T00:02:51.077Z,99076.22
2018-10-11T00:05:20.397Z,99071.30
2018-10-11T00:07:49.765Z,99067.69
2018-10-11T00:10:19.120Z,99079.47
2018-10-11T00:12:48.376Z,99075.95
2018-10-11T00:15:17.617Z,99070.95
2018-10-11T00:17:46.905Z,99075.72
2018-10-11T00:20:16.160Z,99066.20
2018-10-11T00:22:45.418Z,99074.23
2018-10-11T00:25:14.720Z,99073.19
2018-10-11T00:27:44.095Z,99069.88
2018-10-11T00:30:13.311Z,99077.23
2018-10-11T00:32:42.622Z,99074.66
2018-10-11T00:35:11.884Z,99067.61
2018-10-11T00:37:41.137Z,99075.56
2018-10-11T00:40:11.011Z,99064.25
2018-10-11T00:42:40.499Z,99072.39
2018-10-11T00:45:09.852Z,99069.55
2018-10-11T00:47:39.164Z,99073.22
2018-10-11T00:50:08.385Z,99069.33
2018-10-11T00:52:37.789Z,99067.06
2018-10-11T00:55:07.348Z,99068.41
2018-10-11T00:57:36.642Z,99066.99
2018-10-11T01:00:06.100Z,99069.21
2018-10-11T01:02:35.406Z,99067.25
2018-10-11T01:05:04.826Z,99069.02
2018-10-11T01:07:34.362Z,99068.30
2018-10-11T01:10:03.844Z,99063.39
2018-10-11T01:12:33.482Z,99058.48
2018-10-11T01:15:02.794Z,99056.25
2018-10-11T01:17:32.402Z,99052.89
2018-10-11T01:20:01.769Z,99057.63
2018-10-11T01:22:31.293Z,99055.48
2018-10-11T01:25:00.547Z,99056.95
2018-10-11T01:27:29.805Z,99048.94
2018-10-11T01:29:59.075Z,99044.67
2018-10-11T01:32:28.718Z,99043.42
2018-10-11T01:34:58.019Z,99037.70
2018-10-11T01:37:27.881Z,99046.00
2018-10-11T01:39:57.157Z,99046.22
2018-10-11T01:42:26.462Z,99044.84
2018-10-11T01:44:55.726Z,99037.40
2018-10-11T01:47:25.055Z,99041.27
2018-10-11T01:49:54.799Z,99048.55
2018-10-11T01:52:24.108Z,99046.17
2018-10-11T01:54:53.450Z,99041.13
2018-10-11T01:57:23.223Z,99041.35
2018-10-11T01:59:52.451Z,99042.64
2018-10-11T02:02:21.766Z,99039.11
2018-10-11T02:04:50.957Z,99039.11
2018-10-11T02:07:20.176Z,99032.92
2018-10-11T02:09:49.662Z,99033.01
2018-10-11T02:12:18.938Z,99036.66
2018-10-11T02:14:48.258Z,99042.39
2018-10-11T02:17:17.773Z,99045.72
2018-10-11T02:19:46.981Z,99046.44
2018-10-11T02:22:16.194Z,99045.02
2018-10-11T02:24:46.115Z,99041.44
2018-10-11T02:27:15.362Z,99044.70
2018-10-11T02:29:44.562Z,99042.97
2018-10-11T02:32:13.884Z,99049.94
2018-10-11T02:34:44.806Z,99044.97
2018-10-11T02:37:14.049Z,99050.42
2018-10-11T02:39:43.279Z,99047.60
2018-10-11T02:42:12.506Z,99045.88
2018-10-11T02:44:41.898Z,99045.30
2018-10-11T02:47:11.682Z,99036.73
2018-10-11T02:49:41.329Z,99036.90
2018-10-11T02:52:10.743Z,99040.33
2018-10-11T02:54:40.239Z,99036.09
2018-10-11T02:57:19.465Z,99043.56
2018-10-11T02:59:48.992Z,99051.21
2018-10-11T03:02:18.284Z,99046.83
2018-10-11T03:04:48.577Z,99045.55
2018-10-11T03:07:18.036Z,99036.63
2018-10-11T03:09:48.266Z,99048.72
2018-10-11T03:12:18.485Z,99046.97
2018-10-11T03:14:47.736Z,99046.41
2018-10-11T03:17:16.969Z,99040.50
2018-10-11T03:19:46.334Z,99039.47
2018-10-11T03:22:15.538Z,99034.88
2018-10-11T03:24:44.735Z,99028.67
2018-10-11T03:27:13.961Z,99028.29
2018-10-11T03:29:43.220Z,99019.94
2018-10-11T03:32:12.428Z,99021.67
2018-10-11T03:34:41.710Z,99022.82
2018-10-11T03:37:10.919Z,99037.11
2018-10-11T03:39:40.190Z,99037.86
2018-10-11T03:42:09.945Z,99034.77
2018-10-11T03:44:39.164Z,99042.33
2018-10-11T03:47:08.663Z,99046.27
2018-10-11T03:49:37.929Z,99044.88
2018-10-11T03:52:07.204Z,99058.63
2018-10-11T03:54:36.428Z,99055.23
2018-10-11T03:57:05.836Z,99051.77
2018-10-11T03:59:35.151Z,99048.98
2018-10-11T04:02:04.389Z,99042.16
2018-10-11T04:04:33.621Z,99043.16
2018-10-11T04:07:02.786Z,99044.70
2018-10-11T04:09:32.011Z,99042.41
2018-10-11T04:12:01.241Z,99042.92
2018-10-11T04:14:30.435Z,99038.59
2018-10-11T04:16:59.655Z,99043.30
2018-10-11T04:19:28.890Z,99039.80
2018-10-11T04:21:58.037Z,99036.38
2018-10-11T04:24:27.206Z,99034.48
2018-10-11T04:26:56.393Z,99033.05
2018-10-11T04:29:26.125Z,99035.64
2018-10-11T04:31:55.309Z,99037.78
2018-10-11T04:34:24.523Z,99043.34
2018-10-11T04:36:53.786Z,99040.45
2018-10-11T04:39:22.959Z,99046.58
2018-10-11T04:41:52.294Z,99049.23
2018-10-11T04:44:21.457Z,99049.17
2018-10-11T04:46:50.643Z,99045.52
2018-10-11T04:49:19.862Z,99047.54
2018-10-11T04:51:49.057Z,99048.42
2018-10-11T04:54:18.258Z,99042.66
2018-10-11T04:56:47.459Z,99047.41
2018-10-11T04:59:16.713Z,99041.59
2018-10-11T05:01:45.870Z,99035.90
2018-10-11T05:04:15.054Z,99041.70
2018-10-11T05:06:44.273Z,99043.03
2018-10-11T05:09:13.443Z,99040.95
2018-10-11T05:11:43.295Z,99036.32
2018-10-11T05:14:14.170Z,99038.02
2018-10-11T05:16:43.545Z,99040.82
2018-10-11T05:19:12.858Z,99037.59
2018-10-11T05:21:42.106Z,99039.12
2018-10-11T05:24:11.418Z,99043.48
2018-10-11T05:26:40.622Z,99047.47
2018-10-11T05:29:09.895Z,99038.03
2018-10-11T05:31:39.506Z,99043.20
2018-10-11T05:34:08.825Z,99041.33
2018-10-11T05:36:37.999Z,99037.84
2018-10-11T05:39:08.274Z,99044.88
2018-10-11T05:41:38.055Z,99046.08
2018-10-11T05:44:07.280Z,99050.14
2018-10-11T05:46:36.541Z,99062.67
2018-10-11T05:49:06.824Z,99057.95
2018-10-11T05:51:36.455Z,99062.76
2018-10-11T05:54:06.081Z,99064.36
2018-10-11T05:56:37.885Z,99056.52
2018-10-11T05:59:07.924Z,99062.16
2018-10-11T06:01:37.366Z,99065.59
2018-10-11T06:04:07.871Z,99060.27
2018-10-11T06:06:37.064Z,99057.41
2018-10-11T06:09:08.385Z,99061.50
2018-10-11T06:11:37.637Z,99057.17
2018-10-11T06:14:06.901Z,99051.38
2018-10-11T06:16:36.129Z,99044.28
2018-10-11T06:19:05.380Z,99057.50
2018-10-11T06:21:34.722Z,99057.70
2018-10-11T06:24:03.980Z,99054.22
2018-10-11T06:26:33.172Z,99060.12
2018-10-11T06:29:02.432Z,99056.08
2018-10-11T06:31:31.718Z,99059.89
2018-10-11T06:34:00.991Z,99057.81
2018-10-11T06:36:30.327Z,99060.43
2018-10-11T06:39:01.049Z,99061.64
2018-10-11T06:41:30.276Z,99061.02
2018-10-11T06:43:59.570Z,99057.55
2018-10-11T06:46:28.910Z,99063.45
2018-10-11T06:48:58.214Z,99068.27
2018-10-11T06:51:28.539Z,99064.08
2018-10-11T06:53:57.801Z,99058.33
2018-10-11T06:56:26.985Z,99055.47
2018-10-11T06:58:56.396Z,99061.05
2018-10-11T07:01:25.619Z,99062.35
2018-10-11T07:03:54.788Z,99067.34
2018-10-11T07:06:24.002Z,99071.13
2018-10-11T07:08:53.204Z,99077.69
2018-10-11T07:11:22.367Z,99074.83
2018-10-11T07:13:51.584Z,99083.81
2018-10-11T07:16:20.767Z,99072.16
2018-10-11T07:18:50.169Z,99077.88
2018-10-11T07:21:19.377Z,99074.73
2018-10-11T07:23:48.591Z,99086.09
2018-10-11T07:26:17.755Z,99078.14
2018-10-11T07:28:46.963Z,99068.78
2018-10-11T07:31:16.148Z,99071.00
2018-10-11T07:33:47.172Z,99075.08
2018-10-11T07:36:16.373Z,99077.88
2018-10-11T07:38:45.637Z,99074.14
2018-10-11T07:41:14.816Z,99070.15
2018-10-11T07:43:44.006Z,99080.66
2018-10-11T07:46:13.260Z,99085.75
2018-10-11T07:48:42.506Z,99075.55
2018-10-11T07:51:11.691Z,99089.27
2018-10-11T07:53:40.931Z,99075.52
2018-10-11T07:56:10.414Z,99080.38
2018-10-11T07:58:39.802Z,99066.91
2018-10-11T08:01:09.741Z,99060.74
2018-10-11T08:03:39.044Z,99051.31
2018-10-11T08:06:08.198Z,99060.41
2018-10-11T08:08:37.421Z,99051.17
2018-10-11T08:11:07.203Z,99055.69
2018-10-11T08:13:36.483Z,99054.80
2018-10-11T08:16:06.182Z,99055.49
2018-10-11T08:18:35.376Z,99055.41
2018-10-11T08:21:04.896Z,99058.85
2018-10-11T08:23:34.366Z,99053.96
2018-10-11T08:26:04.118Z,99050.84
2018-10-11T08:28:33.146Z,99051.53
2018-10-11T08:31:02.418Z,99051.92
2018-10-11T08:33:31.742Z,99048.44
2018-10-11T08:36:01.113Z,99050.86
2018-10-11T08:38:30.971Z,99049.84
2018-10-11T08:41:00.118Z,99039.46
2018-10-11T08:43:29.393Z,99040.38
2018-10-11T08:45:58.597Z,99034.24
2018-10-11T08:48:27.819Z,99039.84
2018-10-11T08:50:57.145Z,99043.33
2018-10-11T08:53:26.409Z,99038.82
2018-10-11T08:55:55.730Z,99035.89
2018-10-11T08:58:25.364Z,99043.89
2018-10-11T09:00:54.597Z,99020.75
2018-10-11T09:03:23.857Z,99023.36
2018-10-11T09:05:53.050Z,99023.51
2018-10-11T09:08:22.375Z,99019.23
2018-10-11T09:10:51.649Z,99012.94
2018-10-11T09:13:20.925Z,99005.66
2018-10-11T09:15:50.242Z,99010.67
2018-10-11T09:18:19.693Z,99008.53
2018-10-11T09:20:48.783Z,99010.12
2018-10-11T09:23:18.156Z,99004.51
2018-10-11T09:25:47.341Z,99005.00
2018-10-11T09:28:16.730Z,98999.95
2018-10-11T09:30:45.966Z,98998.77
2018-10-11T09:33:15.232Z,99002.57
2018-10-11T09:35:44.667Z,98994.92
2018-10-11T09:38:14.076Z,98993.70
2018-10-11T09:40:43.276Z,98995.33
2018-10-11T09:43:12.720Z,98988.88
2018-10-11T09:45:42.061Z,98982.27
2018-10-11T09:48:11.584Z,98991.86
2018-10-11T09:50:41.225Z,98977.64
2018-10-11T09:53:10.511Z,98983.04
2018-10-11T09:55:39.767Z,98983.41
2018-10-11T09:58:09.483Z,98977.13
2018-10-11T10:00:43.985Z,98992.33
2018-10-11T10:03:13.510Z,98981.16
2018-10-11T10:05:42.794Z,98973.91
2018-10-11T10:08:13.305Z,98964.59
2018-10-11T10:10:42.641Z,98959.75
2018-10-11T10:13:11.909Z,98957.44
2018-10-11T10:15:41.281Z,98949.52
2018-10-11T10:18:10.481Z,98947.95
2018-10-11T10:20:39.708Z,98960.73
2018-10-11T10:23:09.272Z,98956.17
2018-10-11T10:25:38.560Z,98950.73
2018-10-11T10:28:07.814Z,98952.09
2018-10-11T10:30:42.283Z,98956.09
2018-10-11T10:33:11.625Z,98945.72
2018-10-11T10:35:40.760Z,98942.34
2018-10-11T10:38:10.726Z,98940.23
2018-10-11T10:40:39.941Z,98942.25
2018-10-11T10:43:10.195Z,98940.77
2018-10-11T10:45:39.526Z,98925.23
2018-10-11T10:48:09.215Z,98924.83
2018-10-11T10:50:38.590Z,98920.25
2018-10-11T10:53:08.161Z,98918.23
2018-10-11T10:55:38.265Z,98922.52
2018-10-11T10:58:07.521Z,98920.04
2018-10-11T11:00:36.938Z,98906.19
2018-10-11T11:03:06.491Z,98904.51
2018-10-11T11:05:35.705Z,98904.27
2018-10-11T11:08:05.049Z,98896.70
2018-10-11T11:10:34.362Z,98893.48
2018-10-11T11:13:03.656Z,98889.53
2018-10-11T11:15:33.081Z,98890.41
2018-10-11T11:18:02.273Z,98879.29
2018-10-11T11:20:31.709Z,98877.50
2018-10-11T11:23:01.617Z,98860.98
2018-10-11T11:25:30.970Z,98860.41
2018-10-11T11:28:00.415Z,98862.22
2018-10-11T11:30:29.678Z,98861.67
2018-10-11T11:32:59.206Z,98848.24
2018-10-11T11:35:28.657Z,98850.43
2018-10-11T11:37:57.990Z,98853.30
2018-10-11T11:40:27.315Z,98847.25
2018-10-11T11:42:56.515Z,98847.64
2018-10-11T11:45:25.738Z,98832.31
2018-10-11T11:47:54.984Z,98828.13
2018-10-11T11:50:24.427Z,98820.40
2018-10-11T11:52:53.629Z,98819.16
2018-10-11T11:55:22.842Z,98813.02
2018-10-11T11:57:52.090Z,98814.02
2018-10-11T12:00:22.229Z,98790.55
2018-10-11T12:02:51.446Z,98789.19
2018-10-11T12:05:20.618Z,98790.17
2018-10-11T12:07:49.888Z,98764.38
2018-10-11T12:10:19.148Z,98773.14
2018-10-11T12:12:57.036Z,98772.57
2018-10-11T12:15:27.255Z,98764.47
2018-10-11T12:17:58.347Z,98763.52
2018-10-11T12:20:29.854Z,98774.66
2018-10-11T12:23:00.291Z,98766.53
2018-10-11T12:25:29.933Z,98766.94
2018-10-11T12:27:59.325Z,98768.30
2018-10-11T12:30:28.542Z,98762.91
2018-10-11T12:32:57.698Z,98773.50
2018-10-11T12:35:27.394Z,98764.33
2018-10-11T12:37:56.583Z,98750.08
2018-10-11T12:40:25.839Z,98752.47
2018-10-11T12:42:55.066Z,98752.60
2018-10-11T12:45:24.521Z,98745.22
2018-10-11T12:47:54.033Z,98745.22
2018-10-11T12:50:23.266Z,98753.38
2018-10-11T12:52:52.413Z,98747.37
2018-10-11T12:55:21.713Z,98749.34
2018-10-11T12:57:50.878Z,98746.33
2018-10-11T13:00:20.219Z,98751.13
2018-10-11T13:02:49.473Z,98744.27
2018-10-11T13:05:18.673Z,98745.08
2018-10-11T13:07:47.894Z,98749.70
2018-10-11T13:10:17.058Z,98752.62
2018-10-11T13:12:46.263Z,98755.84
2018-10-11T13:15:15.491Z,98752.98
2018-10-11T13:17:44.627Z,98748.73
2018-10-11T13:20:13.835Z,98759.13
2018-10-11T13:22:43.089Z,98757.63
2018-10-11T13:25:12.217Z,98765.38
2018-10-11T13:27:41.378Z,98763.56
2018-10-11T13:30:10.645Z,98764.38
2018-10-11T13:32:39.869Z,98764.06
2018-10-11T13:35:09.193Z,98765.87
2018-10-11T13:37:38.314Z,98759.73
2018-10-11T13:40:07.458Z,98753.31
2018-10-11T13:42:36.773Z,98769.74
2018-10-11T13:45:06.151Z,98752.36
2018-10-11T13:47:39.799Z,98758.43
2018-10-11T13:50:04.590Z,98762.03
2018-10-11T13:52:33.762Z,98757.28
2018-10-11T13:55:08.122Z,98759.34
2018-10-11T13:57:32.117Z,98741.77
2018-10-11T14:00:01.331Z,98752.19
2018-10-11T14:02:30.464Z,98755.02
2018-10-11T14:04:59.798Z,98748.86
2018-10-11T14:07:29.157Z,98746.97
2018-10-11T14:09:58.272Z,98740.47
2018-10-11T14:12:27.468Z,98746.64
2018-10-11T14:14:56.607Z,98747.77
2018-10-11T14:17:25.786Z,98747.33
2018-10-11T14:19:54.953Z,98754.84
2018-10-11T14:22:24.085Z,98755.97
2018-10-11T14:24:53.409Z,98754.68
2018-10-11T14:27:22.598Z,98757.77
2018-10-11T14:29:51.739Z,98758.77
2018-10-11T14:32:20.950Z,98764.36
2018-10-11T14:34:50.131Z,98765.16
2018-10-11T14:37:19.409Z,98763.46
2018-10-11T14:39:48.629Z,98761.41
2018-10-11T14:42:17.782Z,98769.59
2018-10-11T14:44:46.930Z,98774.59
2018-10-11T14:47:16.095Z,98771.30
2018-10-11T14:49:45.247Z,98775.95
2018-10-11T14:52:14.409Z,98782.98
2018-10-11T14:54:43.645Z,98778.84
2018-10-11T14:57:12.870Z,98778.62
2018-10-11T14:59:42.127Z,98779.72
2018-10-11T15:02:11.186Z,98779.27
2018-10-11T15:04:40.393Z,98775.33
2018-10-11T15:07:09.797Z,98786.27
2018-10-11T15:09:38.947Z,98787.36
2018-10-11T15:12:08.150Z,98780.44
2018-10-11T15:14:37.290Z,98783.84
2018-10-11T15:17:06.927Z,98785.38
2018-10-11T15:19:36.099Z,98786.81
2018-10-11T15:22:05.369Z,98789.95
2018-10-11T15:24:34.594Z,98790.79
2018-10-11T15:27:03.782Z,98801.44
2018-10-11T15:29:33.060Z,98802.92
2018-10-11T15:32:02.104Z,98809.94
2018-10-11T15:34:31.491Z,98805.34
2018-10-11T15:37:00.654Z,98806.61
2018-10-11T15:39:29.802Z,98814.53
2018-10-11T15:41:58.991Z,98806.09
2018-10-11T15:44:28.177Z,98814.45
2018-10-11T15:46:57.333Z,98817.92
2018-10-11T15:49:26.501Z,98815.70
2018-10-11T15:51:55.690Z,98817.44
2018-10-11T15:54:24.831Z,98826.34
2018-10-11T15:56:53.989Z,98822.91
2018-10-11T15:59:23.153Z,98830.11
2018-10-11T16:01:52.376Z,98837.11
2018-10-11T16:04:21.571Z,98838.66
2018-10-11T16:06:50.766Z,98844.99
2018-10-11T16:09:19.972Z,98847.00
2018-10-11T16:11:49.193Z,98836.59
2018-10-11T16:14:18.314Z,98846.78
2018-10-11T16:16:47.467Z,98850.53
2018-10-11T16:19:16.702Z,98853.05
2018-10-11T16:21:45.834Z,98860.98
2018-10-11T16:24:15.371Z,98866.17
2018-10-11T16:26:44.528Z,98866.34
2018-10-11T16:29:13.653Z,98871.84
2018-10-11T16:31:42.828Z,98870.95
2018-10-11T16:34:11.982Z,98874.30
2018-10-11T16:36:41.132Z,98872.69
2018-10-11T16:39:10.707Z,98871.83
2018-10-11T16:41:39.929Z,98880.69
2018-10-11T16:44:09.106Z,98884.78
2018-10-11T16:46:38.254Z,98883.25
2018-10-11T16:49:07.624Z,98888.13
2018-10-11T16:51:37.125Z,98892.73
2018-10-11T16:54:06.318Z,98899.34
2018-10-11T16:56:35.564Z,98907.97
2018-10-11T16:59:04.720Z,98912.45
2018-10-11T17:01:33.855Z,98916.05
2018-10-11T17:04:03.123Z,98922.27
2018-10-11T17:06:32.309Z,98924.63
2018-10-11T17:09:01.466Z,98927.28
2018-10-11T17:11:30.680Z,98929.95
2018-10-11T17:13:59.838Z,98933.12
2018-10-11T17:16:29.034Z,98934.09
2018-10-11T17:18:58.202Z,98945.50
2018-10-11T17:21:27.417Z,98947.88
2018-10-11T17:23:56.517Z,98944.16
2018-10-11T17:26:25.663Z,98948.70
2018-10-11T17:28:54.822Z,98947.91
2018-10-11T17:31:24.128Z,98956.54
2018-10-11T17:33:53.328Z,98955.19
2018-10-11T17:36:22.447Z,98960.56
2018-10-11T17:38:51.605Z,98960.00
2018-10-11T17:41:20.738Z,98961.30
2018-10-11T17:43:49.944Z,98962.20
2018-10-11T17:46:19.170Z,98965.84
2018-10-11T17:48:48.315Z,98963.26
2018-10-11T17:51:17.506Z,98963.21
2018-10-11T17:53:46.705Z,98962.00
2018-10-11T17:56:15.900Z,98965.59
2018-10-11T17:58:45.044Z,98965.16
2018-10-11T18:01:14.177Z,98966.80
2018-10-11T18:03:43.616Z,98959.04
2018-10-11T18:06:12.759Z,98955.02
2018-10-11T18:08:41.898Z,98948.48
2018-10-11T18:11:11.089Z,98952.55
2018-10-11T18:13:40.698Z,98947.16
2018-10-11T18:16:11.000Z,98945.37
2018-10-11T18:18:40.164Z,98948.07
2018-10-11T18:21:09.537Z,98951.47
2018-10-11T18:23:39.807Z,98942.83
2018-10-11T18:26:09.032Z,98948.89
2018-10-11T18:28:38.206Z,98947.63
2018-10-11T18:31:08.674Z,98952.92
2018-10-11T18:33:38.084Z,98960.31
2018-10-11T18:36:07.375Z,98962.05
2018-10-11T18:38:36.627Z,98965.34
2018-10-11T18:41:05.921Z,98961.09
2018-10-11T18:43:35.954Z,98961.66
2018-10-11T18:46:05.154Z,98962.82
2018-10-11T18:48:34.404Z,98956.11
2018-10-11T18:51:04.748Z,98951.87
2018-10-11T18:53:33.903Z,98954.05
2018-10-11T18:56:03.076Z,98951.34
2018-10-11T18:58:32.288Z,98958.84
2018-10-11T19:01:01.473Z,98954.80
2018-10-11T19:03:30.663Z,98952.34
2018-10-11T19:05:59.805Z,98956.11
2018-10-11T19:08:29.382Z,98955.08
2018-10-11T19:10:58.927Z,98959.96
2018-10-11T19:13:28.072Z,98963.28
2018-10-11T19:15:57.213Z,98969.20
2018-10-11T19:18:26.418Z,98963.37
2018-10-11T19:20:55.662Z,98971.73
2018-10-11T19:23:24.866Z,98965.28
2018-10-11T19:25:54.055Z,98967.77
2018-10-11T19:28:23.693Z,98974.73
2018-10-11T19:30:53.125Z,98974.23
2018-10-11T19:33:22.294Z,98974.55
2018-10-11T19:35:51.534Z,98972.37
2018-10-11T19:38:20.697Z,98971.58
2018-10-11T19:40:49.880Z,98972.95
2018-10-11T19:43:19.105Z,98966.27
2018-10-11T19:45:48.265Z,98974.38
2018-10-11T19:48:17.469Z,98975.99
2018-10-11T19:50:46.955Z,98979.50
2018-10-11T19:53:16.100Z,98976.56
2018-10-11T19:55:45.291Z,98984.89
2018-10-11T19:58:14.430Z,98985.44
2018-10-11T20:00:43.782Z,98989.48
2018-10-11T20:03:12.989Z,98979.00
2018-10-11T20:05:42.263Z,98980.89
2018-10-11T20:08:11.489Z,98983.02
2018-10-11T20:10:40.611Z,98984.31
2018-10-11T20:13:09.795Z,98985.09
2018-10-11T20:15:38.982Z,98985.31
2018-10-11T20:18:08.188Z,98988.52
2018-10-11T20:20:37.349Z,98984.41
2018-10-11T20:23:06.828Z,98993.24
2018-10-11T20:25:36.498Z,98996.16
2018-10-11T20:28:05.703Z,98993.17
2018-10-11T20:30:34.824Z,98998.29
2018-10-11T20:33:04.029Z,99004.69
2018-10-11T20:35:33.187Z,99000.88
2018-10-11T20:38:03.189Z,99000.31
2018-10-11T20:40:32.400Z,99001.33
2018-10-11T20:43:01.582Z,98999.84
2018-10-11T20:45:30.723Z,99003.55
2018-10-11T20:47:59.911Z,99008.34
2018-10-11T20:50:29.128Z,99002.64
2018-10-11T20:52:58.378Z,99010.32
2018-10-11T20:55:27.543Z,99010.52
2018-10-11T20:57:56.699Z,99009.67
2018-10-11T21:00:25.850Z,99012.05
2018-10-11T21:02:55.026Z,99010.38
2018-10-11T21:05:24.179Z,99019.73
2018-10-11T21:07:53.328Z,99011.81
2018-10-11T21:10:22.707Z,99020.16
2018-10-11T21:12:51.990Z,99013.72
2018-10-11T21:15:21.130Z,99013.97
2018-10-11T21:17:50.590Z,99015.75
2018-10-11T21:20:20.011Z,99019.77
2018-10-11T21:22:48.992Z,99023.25
2018-10-11T21:25:18.162Z,99019.47
2018-10-11T21:27:47.341Z,99025.58
2018-10-11T21:30:16.478Z,99025.52
2018-10-11T21:32:45.655Z,99017.41
2018-10-11T21:35:14.815Z,99019.95
2018-10-11T21:37:44.007Z,99018.27
2018-10-11T21:40:13.248Z,99020.81
2018-10-11T21:42:42.393Z,99026.65
2018-10-11T21:45:11.579Z,99019.89
2018-10-11T21:47:41.029Z,99024.39
2018-10-11T21:50:10.337Z,99023.28
2018-10-11T21:52:39.551Z,99025.39
2018-10-11T21:55:09.014Z,99022.31
2018-10-11T21:57:38.224Z,99028.20
2018-10-11T22:00:07.643Z,99034.03
2018-10-11T22:02:36.839Z,99029.44
2018-10-11T22:05:06.068Z,99032.10
2018-10-11T22:07:35.254Z,99032.76
2018-10-11T22:10:04.646Z,99037.03
2018-10-11T22:12:33.806Z,99031.61
2018-10-11T22:15:03.147Z,99029.67
2018-10-11T22:17:32.140Z,99026.58
2018-10-11T22:20:01.298Z,99027.02
2018-10-11T22:22:30.478Z,99021.63
2018-10-11T22:24:59.649Z,99024.53
2018-10-11T22:27:28.830Z,99017.77
2018-10-11T22:29:58.033Z,99022.16
2018-10-11T22:32:27.214Z,99026.89
2018-10-11T22:34:56.384Z,99024.63
2018-10-11T22:37:25.584Z,99027.20
2018-10-11T22:39:54.773Z,99024.66
2018-10-11T22:42:23.986Z,99025.98
2018-10-11T22:44:53.384Z,99028.20
2018-10-11T22:47:22.760Z,99027.44
2018-10-11T22:49:51.962Z,99029.23
2018-10-11T22:52:21.107Z,99027.64
2018-10-11T22:54:50.286Z,99026.94
2018-10-11T22:57:19.560Z,99025.97
2018-10-11T22:59:48.776Z,99019.06
2018-10-11T23:02:17.938Z,99031.42
2018-10-11T23:04:47.116Z,99024.80
2018-10-11T23:07:16.389Z,99017.43
2018-10-11T23:09:54.356Z,99028.86
2018-10-11T23:12:23.918Z,99025.37
2018-10-11T23:14:53.553Z,99021.33
2018-10-11T23:17:22.778Z,99015.59
2018-10-11T23:19:51.942Z,99020.40
2018-10-11T23:22:21.085Z,99025.92
2018-10-11T23:24:51.187Z,99016.54
2018-10-11T23:27:20.366Z,99002.23
2018-10-11T23:29:49.529Z,99013.87
2018-10-11T23:32:18.738Z,99010.48
2018-10-11T23:34:47.937Z,99020.68
2018-10-11T23:37:17.136Z,99007.83
2018-10-11T23:39:46.415Z,99020.23
2018-10-11T23:42:15.554Z,99018.55
2018-10-11T23:44:44.714Z,99015.38
2018-10-11T23:47:13.842Z,99010.03
2018-10-11T23:49:43.003Z,99014.94
2018-10-11T23:52:12.183Z,99014.69
2018-10-11T23:54:41.369Z,99013.57
2018-10-11T23:57:10.898Z,99011.88
2018-10-11T23:59:40.099Z,99015.66
